Time;durP1;ratioP1;P1;durP2;ratioP2;P2;SDS_P1;SDS_P2;PMS_P1;PMS_P2;Temp;Humidity;BMP_temperature;BMP_pressure;BME280_temperature;BME280_humidity;BME280_pressure;Samples;Min_cycle;Max_cycle;Signal;HPM_P1;HPM_P2
2021/11/22 00:01:05;;;;;;;18.17;10.30;;;8.00;99.90;;;;;;5025384;28;20247;-64
2021/11/22 00:03:33;;;;;;;15.80;10.20;;;8.00;99.90;;;;;;5026813;28;20724;-62
2021/11/22 00:06:00;;;;;;;16.93;9.53;;;8.10;99.90;;;;;;5018436;28;20238;-62
2021/11/22 00:08:26;;;;;;;16.97;10.00;;;8.10;99.90;;;;;;5027059;28;20581;-61
2021/11/22 00:10:53;;;;;;;16.73;10.17;;;8.10;99.90;;;;;;5032032;28;20649;-59
2021/11/22 00:13:21;;;;;;;15.33;10.00;;;8.10;99.90;;;;;;5018591;28;20322;-61
2021/11/22 00:15:51;;;;;;;20.80;10.77;;;8.00;99.90;;;;;;5026029;28;20285;-62
2021/11/22 00:18:18;;;;;;;18.53;10.03;;;8.10;99.90;;;;;;5033717;28;20652;-61
2021/11/22 00:20:45;;;;;;;14.80;10.03;;;8.10;99.90;;;;;;5018513;28;20294;-61
2021/11/22 00:23:12;;;;;;;17.87;10.20;;;8.10;99.90;;;;;;5023011;28;20242;-62
2021/11/22 00:25:39;;;;;;;14.33;9.77;;;8.10;99.90;;;;;;5029525;28;20262;-60
2021/11/22 00:28:06;;;;;;;14.97;9.53;;;8.10;99.90;;;;;;5016755;28;20227;-61
2021/11/22 00:30:33;;;;;;;17.70;10.03;;;8.20;99.90;;;;;;5026873;28;20213;-61
2021/11/22 00:33:02;;;;;;;16.47;9.77;;;8.20;99.90;;;;;;5017745;28;20623;-62
2021/11/22 00:35:33;;;;;;;16.53;9.23;;;8.10;99.90;;;;;;5026595;28;20277;-62
2021/11/22 00:38:00;;;;;;;17.20;9.77;;;8.20;99.90;;;;;;5025978;28;20203;-61
2021/11/22 00:40:27;;;;;;;13.33;8.97;;;8.10;99.90;;;;;;5013986;28;20234;-61
2021/11/22 00:42:54;;;;;;;17.30;9.60;;;8.10;99.90;;;;;;5023415;28;20683;-61
2021/11/22 00:45:21;;;;;;;13.40;8.40;;;8.10;99.90;;;;;;5023928;28;20258;-62
2021/11/22 00:47:48;;;;;;;15.03;9.30;;;8.10;99.90;;;;;;5028602;28;20239;-62
2021/11/22 00:50:17;;;;;;;16.60;9.67;;;8.10;99.90;;;;;;5019025;28;20627;-62
2021/11/22 00:52:44;;;;;;;13.63;8.47;;;8.10;99.90;;;;;;5026648;28;20638;-62
2021/11/22 00:55:11;;;;;;;17.63;9.63;;;8.10;99.90;;;;;;5021723;28;20640;-62
2021/11/22 00:57:39;;;;;;;15.77;8.83;;;8.10;99.90;;;;;;5032312;28;20242;-61
2021/11/22 01:00:09;;;;;;;16.53;9.53;;;8.10;99.90;;;;;;5015269;28;20251;-62
2021/11/22 01:02:36;;;;;;;15.63;9.03;;;8.10;99.90;;;;;;5022398;28;20257;-61
2021/11/22 01:05:04;;;;;;;17.97;9.20;;;8.10;99.90;;;;;;5021137;28;20795;-62
2021/11/22 01:07:32;;;;;;;14.33;9.33;;;8.20;99.90;;;;;;5023134;28;20225;-62
2021/11/22 01:10:00;;;;;;;14.47;9.63;;;8.20;99.90;;;;;;5030738;28;20301;-60
2021/11/22 01:12:28;;;;;;;20.43;9.77;;;8.20;99.90;;;;;;5032797;28;20257;-60
2021/11/22 01:14:56;;;;;;;14.07;9.53;;;8.20;99.90;;;;;;5019514;28;20214;-62
2021/11/22 01:17:23;;;;;;;14.83;9.50;;;8.20;99.90;;;;;;5012531;28;20234;-62
2021/11/22 01:19:52;;;;;;;14.47;9.00;;;8.20;99.90;;;;;;5022313;28;20293;-61
2021/11/22 01:22:19;;;;;;;15.10;9.20;;;8.20;99.90;;;;;;5028513;28;20217;-60
2021/11/22 01:24:48;;;;;;;19.20;9.30;;;8.20;99.90;;;;;;5023101;28;20761;-61
2021/11/22 01:27:15;;;;;;;17.70;9.60;;;8.10;99.90;;;;;;5025870;28;20230;-63
2021/11/22 01:29:42;;;;;;;14.37;9.00;;;8.20;99.90;;;;;;5019892;28;20285;-61
2021/11/22 01:32:09;;;;;;;19.07;9.80;;;8.10;99.90;;;;;;5025947;28;20289;-62
2021/11/22 01:34:36;;;;;;;12.17;9.27;;;8.10;99.90;;;;;;5022519;28;20244;-61
2021/11/22 01:37:03;;;;;;;15.60;9.40;;;8.10;99.90;;;;;;5025497;28;20238;-62
2021/11/22 01:39:30;;;;;;;14.33;9.57;;;8.10;99.90;;;;;;5013515;28;20646;-61
2021/11/22 01:41:59;;;;;;;14.43;9.57;;;8.10;99.90;;;;;;5023326;28;20322;-62
2021/11/22 01:44:26;;;;;;;12.93;9.30;;;8.10;99.90;;;;;;5017925;28;20315;-63
2021/11/22 01:46:53;;;;;;;16.30;10.30;;;8.10;99.90;;;;;;5021661;28;20245;-62
2021/11/22 01:49:21;;;;;;;15.67;10.10;;;8.10;99.90;;;;;;5012235;28;20254;-62
2021/11/22 01:51:48;;;;;;;12.33;8.83;;;8.10;99.90;;;;;;5026596;28;20249;-62
2021/11/22 01:54:16;;;;;;;16.57;9.40;;;8.20;99.90;;;;;;5022750;28;20234;-62
2021/11/22 01:56:44;;;;;;;13.83;9.97;;;8.20;99.90;;;;;;5027509;28;20219;-62
2021/11/22 01:59:14;;;;;;;15.97;8.90;;;8.20;99.90;;;;;;5011784;28;20335;-61
2021/11/22 02:01:41;;;;;;;15.17;8.73;;;8.20;99.90;;;;;;5029030;28;20237;-62
2021/11/22 02:04:09;;;;;;;17.30;10.50;;;8.20;99.90;;;;;;5019666;28;20674;-63
2021/11/22 02:06:35;;;;;;;17.93;9.00;;;8.20;99.90;;;;;;5016158;28;20305;-63
2021/11/22 02:09:03;;;;;;;14.17;9.30;;;8.20;99.90;;;;;;5030571;28;20285;-63
2021/11/22 02:11:30;;;;;;;15.20;8.83;;;8.20;99.90;;;;;;5029465;28;20293;-62
2021/11/22 02:13:57;;;;;;;16.90;9.60;;;8.10;99.90;;;;;;5017234;28;20618;-64
2021/11/22 02:16:26;;;;;;;14.03;9.73;;;8.10;99.90;;;;;;5019783;28;20274;-62
2021/11/22 02:18:55;;;;;;;17.07;10.10;;;8.10;99.90;;;;;;5011267;28;20289;-62
2021/11/22 02:21:23;;;;;;;17.07;10.03;;;8.10;99.90;;;;;;5021398;28;20221;-62
2021/11/22 02:23:50;;;;;;;17.10;9.47;;;8.10;99.90;;;;;;5026611;28;20210;-62
2021/11/22 02:26:17;;;;;;;14.57;9.70;;;8.10;99.90;;;;;;5022308;28;20245;-63
2021/11/22 02:28:44;;;;;;;12.33;8.43;;;8.10;99.90;;;;;;5025039;28;20269;-62
2021/11/22 02:31:11;;;;;;;17.43;8.97;;;8.10;99.90;;;;;;5016872;28;20609;-62
2021/11/22 02:33:39;;;;;;;15.20;8.50;;;8.10;99.90;;;;;;5025077;28;20349;-64
2021/11/22 02:36:06;;;;;;;13.63;9.50;;;8.10;99.90;;;;;;5015947;28;20294;-64
2021/11/22 02:38:37;;;;;;;16.50;10.77;;;8.10;99.90;;;;;;5019155;28;20639;-64
2021/11/22 02:41:06;;;;;;;14.30;10.33;;;8.00;99.90;;;;;;5025369;28;20226;-62
2021/11/22 02:43:35;;;;;;;14.27;9.67;;;8.00;99.90;;;;;;5029280;28;20222;-62
2021/11/22 02:46:02;;;;;;;15.57;9.60;;;8.00;99.90;;;;;;5029641;28;20245;-62
2021/11/22 02:48:29;;;;;;;15.67;10.20;;;8.00;99.90;;;;;;5021077;28;20291;-62
2021/11/22 02:50:57;;;;;;;17.97;10.53;;;8.00;99.90;;;;;;5010586;28;20230;-63
2021/11/22 02:53:25;;;;;;;15.77;10.73;;;8.10;99.90;;;;;;5028141;28;20310;-64
2021/11/22 02:55:53;;;;;;;13.20;8.70;;;8.00;99.90;;;;;;5028011;28;20234;-63
2021/11/22 02:58:23;;;;;;;13.60;9.10;;;8.10;99.90;;;;;;5025982;28;20280;-62
2021/11/22 03:00:49;;;;;;;13.63;9.27;;;8.00;99.90;;;;;;5019720;28;20479;-63
2021/11/22 03:03:17;;;;;;;14.87;9.63;;;8.00;99.90;;;;;;5025795;28;20235;-62
2021/11/22 03:05:43;;;;;;;14.80;9.10;;;7.90;99.90;;;;;;5022736;28;20299;-62
2021/11/22 03:08:10;;;;;;;14.03;8.77;;;7.90;99.90;;;;;;5012013;28;20298;-62
2021/11/22 03:10:38;;;;;;;14.10;9.33;;;7.90;99.90;;;;;;5015454;28;20554;-64
2021/11/22 03:13:07;;;;;;;15.17;9.13;;;8.00;99.90;;;;;;5016264;28;20325;-62
2021/11/22 03:15:35;;;;;;;13.73;9.00;;;8.00;99.90;;;;;;5031834;28;20199;-64
2021/11/22 03:18:02;;;;;;;13.03;8.43;;;8.10;99.90;;;;;;5033675;28;20217;-63
2021/11/22 03:20:29;;;;;;;16.90;10.10;;;8.10;99.90;;;;;;5026588;28;20242;-63
2021/11/22 03:22:56;;;;;;;13.97;9.20;;;8.10;99.90;;;;;;5023399;28;20274;-64
2021/11/22 03:25:23;;;;;;;13.70;8.23;;;8.10;99.90;;;;;;5026492;28;20764;-64
2021/11/22 03:27:51;;;;;;;11.57;8.40;;;8.20;99.90;;;;;;5014303;28;20222;-62
2021/11/22 03:30:20;;;;;;;12.10;8.27;;;8.20;99.90;;;;;;5025001;28;20242;-63
2021/11/22 03:32:47;;;;;;;15.57;9.00;;;8.20;99.90;;;;;;5018067;28;20394;-63
2021/11/22 03:35:14;;;;;;;12.10;8.93;;;8.20;99.90;;;;;;5022323;28;20242;-63
2021/11/22 03:37:42;;;;;;;12.83;8.67;;;8.30;99.90;;;;;;5027839;28;20211;-62
2021/11/22 03:40:10;;;;;;;14.30;8.87;;;8.20;99.90;;;;;;5022796;28;20217;-63
2021/11/22 03:42:40;;;;;;;14.03;8.57;;;8.30;99.90;;;;;;5019167;28;20264;-63
2021/11/22 03:45:09;;;;;;;14.97;9.97;;;8.30;99.90;;;;;;5033144;28;20215;-62
2021/11/22 03:47:37;;;;;;;16.37;10.30;;;8.30;99.90;;;;;;5030753;28;20318;-63
2021/11/22 03:50:05;;;;;;;14.40;10.20;;;8.30;99.90;;;;;;5016074;28;20312;-63
2021/11/22 03:52:32;;;;;;;16.20;10.20;;;8.30;99.90;;;;;;5032551;28;20245;-64
2021/11/22 03:54:59;;;;;;;14.77;9.37;;;8.20;99.90;;;;;;5016218;28;20556;-62
2021/11/22 03:57:27;;;;;;;15.67;9.30;;;8.20;99.90;;;;;;5021758;28;20317;-63
2021/11/22 03:59:55;;;;;;;14.47;10.10;;;8.20;99.90;;;;;;5031682;28;20210;-62
2021/11/22 04:02:23;;;;;;;12.70;8.43;;;8.30;99.90;;;;;;5025703;28;20207;-64
2021/11/22 04:04:51;;;;;;;14.87;9.27;;;8.30;99.90;;;;;;5027104;28;20277;-63
2021/11/22 04:07:18;;;;;;;14.13;9.53;;;8.30;99.90;;;;;;5020208;28;20317;-64
2021/11/22 04:09:45;;;;;;;15.13;9.50;;;8.30;99.90;;;;;;5024838;28;20293;-63
2021/11/22 04:12:12;;;;;;;16.40;10.80;;;8.20;99.90;;;;;;5015900;28;20284;-62
2021/11/22 04:14:39;;;;;;;16.27;11.70;;;8.20;99.90;;;;;;5015297;28;20704;-61
2021/11/22 04:17:06;;;;;;;16.17;10.70;;;8.30;99.90;;;;;;5028433;28;20293;-61
2021/11/22 04:19:33;;;;;;;16.60;10.87;;;8.30;99.90;;;;;;5031413;28;20234;-63
2021/11/22 04:22:01;;;;;;;16.33;11.17;;;8.20;99.90;;;;;;5015928;28;20654;-64
2021/11/22 04:24:28;;;;;;;16.07;11.93;;;8.20;99.90;;;;;;5024359;28;20560;-62
2021/11/22 04:26:55;;;;;;;19.33;12.43;;;8.20;99.90;;;;;;5024439;28;20703;-63
2021/11/22 04:29:22;;;;;;;18.63;13.40;;;8.20;99.90;;;;;;5018589;28;20206;-63
2021/11/22 04:31:49;;;;;;;18.93;12.93;;;8.20;99.90;;;;;;5025237;28;20825;-62
2021/11/22 04:34:16;;;;;;;15.40;11.17;;;8.10;99.90;;;;;;5013787;28;20306;-63
2021/11/22 04:36:44;;;;;;;12.73;10.50;;;8.10;99.90;;;;;;5022929;28;20309;-62
2021/11/22 04:39:12;;;;;;;15.93;10.83;;;8.00;99.90;;;;;;5029486;28;20272;-62
2021/11/22 04:41:39;;;;;;;13.90;9.80;;;8.00;99.90;;;;;;5021563;28;20702;-63
2021/11/22 04:44:06;;;;;;;12.97;9.93;;;8.00;99.90;;;;;;5015667;28;20660;-63
2021/11/22 04:46:34;;;;;;;15.03;9.77;;;7.90;99.90;;;;;;5024195;28;20661;-63
2021/11/22 04:49:01;;;;;;;12.97;9.40;;;7.90;99.90;;;;;;5013751;28;20298;-65
2021/11/22 04:51:28;;;;;;;16.83;10.90;;;7.90;99.90;;;;;;5024843;28;20301;-65
2021/11/22 04:53:55;;;;;;;14.10;10.53;;;7.90;99.90;;;;;;5026951;28;20246;-65
2021/11/22 04:56:24;;;;;;;14.57;10.13;;;7.80;99.90;;;;;;5017533;28;20258;-66
2021/11/22 04:58:51;;;;;;;17.93;11.23;;;7.80;99.90;;;;;;5025252;28;20298;-67
2021/11/22 05:01:17;;;;;;;15.10;11.07;;;7.80;99.90;;;;;;5024528;28;20394;-66
2021/11/22 05:03:48;;;;;;;15.40;10.70;;;7.70;99.90;;;;;;5017346;28;20285;-66
2021/11/22 05:06:15;;;;;;;15.53;10.07;;;7.80;99.90;;;;;;5019841;28;20246;-65
2021/11/22 05:08:42;;;;;;;12.33;8.27;;;7.80;99.90;;;;;;5025467;28;20270;-67
2021/11/22 05:11:08;;;;;;;9.77;7.50;;;7.80;99.90;;;;;;5011766;28;20575;-67
2021/11/22 05:13:37;;;;;;;10.80;6.33;;;7.70;99.90;;;;;;5011826;28;20325;-65
2021/11/22 05:16:04;;;;;;;9.30;6.60;;;7.70;99.90;;;;;;5019218;28;20290;-66
2021/11/22 05:18:31;;;;;;;8.90;6.27;;;7.70;99.90;;;;;;5025415;28;20654;-65
2021/11/22 05:20:58;;;;;;;8.43;5.83;;;7.70;99.90;;;;;;5013850;28;20211;-65
2021/11/22 05:23:24;;;;;;;10.00;6.63;;;7.70;99.90;;;;;;5014324;28;20211;-66
2021/11/22 05:25:51;;;;;;;9.67;6.03;;;7.70;99.90;;;;;;5024926;28;20254;-65
2021/11/22 05:28:19;;;;;;;7.87;6.10;;;7.60;99.90;;;;;;5021859;28;20199;-66
2021/11/22 05:30:47;;;;;;;7.33;5.20;;;7.60;99.90;;;;;;5021231;28;20684;-65
2021/11/22 05:33:14;;;;;;;8.57;6.13;;;7.60;99.90;;;;;;5025964;28;20294;-65
2021/11/22 05:35:41;;;;;;;8.67;5.97;;;7.60;99.90;;;;;;5017187;28;20234;-65
2021/11/22 05:38:08;;;;;;;6.40;5.27;;;7.50;99.90;;;;;;5022845;28;20218;-66
2021/11/22 05:40:34;;;;;;;9.93;6.27;;;7.50;99.90;;;;;;5024827;28;20205;-65
2021/11/22 05:43:02;;;;;;;7.20;5.40;;;7.50;99.90;;;;;;5024902;28;20315;-64
2021/11/22 05:45:30;;;;;;;9.10;6.33;;;7.50;99.90;;;;;;5020376;28;20648;-65
2021/11/22 05:47:58;;;;;;;7.97;6.03;;;7.50;99.90;;;;;;5015111;28;20297;-65
2021/11/22 05:50:25;;;;;;;7.43;6.20;;;7.50;99.90;;;;;;5028850;28;20244;-65
2021/11/22 05:52:54;;;;;;;9.10;7.17;;;7.50;99.90;;;;;;5018540;28;20632;-65
2021/11/22 05:55:34;;;;;;;11.20;7.10;;;7.50;99.90;;;;;;5021823;28;20693;-66
2021/11/22 05:58:03;;;;;;;12.97;8.10;;;7.50;99.90;;;;;;5025638;28;20222;-66
2021/11/22 06:00:30;;;;;;;12.07;7.87;;;7.60;99.90;;;;;;5030602;28;20245;-67
2021/11/22 06:02:58;;;;;;;12.60;8.40;;;7.60;99.90;;;;;;5023517;28;20723;-64
2021/11/22 06:05:26;;;;;;;11.67;9.30;;;7.60;99.90;;;;;;5012363;28;20643;-65
2021/11/22 06:07:53;;;;;;;12.73;8.80;;;7.60;99.90;;;;;;5016180;28;20312;-65
2021/11/22 06:10:20;;;;;;;10.83;8.13;;;7.70;99.90;;;;;;5025141;28;20238;-66
2021/11/22 06:12:47;;;;;;;9.10;7.07;;;7.70;99.90;;;;;;5030045;28;20285;-65
2021/11/22 06:15:14;;;;;;;11.37;8.00;;;7.70;99.90;;;;;;5028291;28;20660;-67
2021/11/22 06:17:41;;;;;;;9.70;7.50;;;7.70;99.90;;;;;;5028299;28;20202;-66
2021/11/22 06:20:11;;;;;;;11.67;7.93;;;7.80;99.90;;;;;;5024464;28;20213;-66
2021/11/22 06:22:38;;;;;;;10.73;8.60;;;7.80;99.90;;;;;;5017264;28;20210;-66
2021/11/22 06:25:07;;;;;;;11.73;8.67;;;7.80;99.90;;;;;;5017992;28;20235;-65
2021/11/22 06:27:34;;;;;;;14.03;9.70;;;7.80;99.90;;;;;;5014256;28;20251;-67
2021/11/22 06:30:02;;;;;;;18.57;11.90;;;7.80;99.90;;;;;;5020723;28;20302;-68
2021/11/22 06:32:30;;;;;;;12.97;11.20;;;7.80;99.90;;;;;;5012554;28;20203;-68
2021/11/22 06:34:57;;;;;;;17.00;12.53;;;7.80;99.90;;;;;;5010980;28;20298;-67
2021/11/22 06:37:28;;;;;;;15.73;11.63;;;7.80;99.90;;;;;;5016025;28;20209;-68
2021/11/22 06:39:55;;;;;;;13.63;10.43;;;7.80;99.90;;;;;;5011871;28;20231;-67
2021/11/22 06:42:22;;;;;;;12.20;9.40;;;7.80;99.90;;;;;;5016141;28;20294;-68
2021/11/22 06:44:50;;;;;;;12.97;8.93;;;7.80;99.90;;;;;;5015376;28;20242;-68
2021/11/22 06:47:17;;;;;;;9.87;7.17;;;7.70;99.90;;;;;;5014935;28;20249;-68
2021/11/22 06:49:44;;;;;;;9.67;7.00;;;7.70;99.90;;;;;;5019877;28;20340;-69
2021/11/22 06:52:13;;;;;;;13.53;7.90;;;7.70;99.90;;;;;;5034245;28;20256;-68
2021/11/22 06:54:41;;;;;;;10.13;6.70;;;7.70;99.90;;;;;;5020591;28;20223;-68
2021/11/22 06:57:09;;;;;;;8.13;6.13;;;7.70;99.90;;;;;;5027514;28;20258;-69
2021/11/22 06:59:36;;;;;;;7.57;6.13;;;7.70;99.90;;;;;;5017295;28;20210;-67
2021/11/22 07:02:03;;;;;;;6.37;5.63;;;7.70;99.90;;;;;;5026352;28;20208;-68
2021/11/22 07:04:33;;;;;;;6.00;4.80;;;7.60;99.90;;;;;;5027117;28;20504;-69
2021/11/22 07:07:00;;;;;;;9.73;4.80;;;7.60;99.90;;;;;;5024949;28;20262;-65
2021/11/22 07:09:27;;;;;;;7.33;4.43;;;7.60;99.90;;;;;;5017617;28;20305;-65
2021/11/22 07:11:55;;;;;;;7.90;4.40;;;7.60;99.90;;;;;;5022977;28;20246;-67
2021/11/22 07:14:22;;;;;;;8.07;5.00;;;7.60;99.90;;;;;;5023717;28;20298;-69
2021/11/22 07:16:53;;;;;;;7.40;4.57;;;7.60;99.90;;;;;;5019889;28;20601;-65
2021/11/22 07:19:20;;;;;;;7.07;4.27;;;7.60;99.90;;;;;;5014570;28;20203;-65
2021/11/22 07:21:47;;;;;;;7.20;5.50;;;7.60;99.90;;;;;;5024581;28;20234;-66
2021/11/22 07:24:15;;;;;;;8.70;5.90;;;7.60;99.90;;;;;;5015433;28;20213;-66
2021/11/22 07:26:42;;;;;;;7.57;5.30;;;7.50;99.90;;;;;;5014740;28;20239;-65
2021/11/22 07:29:10;;;;;;;8.77;5.37;;;7.50;99.90;;;;;;5017007;28;20254;-66
2021/11/22 07:31:37;;;;;;;9.10;5.77;;;7.30;99.90;;;;;;5019790;28;20211;-66
2021/11/22 07:34:05;;;;;;;8.27;5.07;;;7.20;99.90;;;;;;5017659;28;20645;-66
2021/11/22 07:36:32;;;;;;;6.57;5.20;;;7.20;99.90;;;;;;5014871;28;20223;-66
2021/11/22 07:38:58;;;;;;;8.67;5.30;;;7.20;99.90;;;;;;5013979;28;20234;-67
2021/11/22 07:41:25;;;;;;;12.03;6.07;;;7.10;99.90;;;;;;5017058;28;20302;-66
2021/11/22 07:43:53;;;;;;;10.27;7.70;;;7.10;99.90;;;;;;5018640;28;20249;-66
2021/11/22 07:46:21;;;;;;;10.67;7.17;;;7.10;99.90;;;;;;5023059;28;20739;-66
2021/11/22 07:48:48;;;;;;;10.83;7.70;;;7.10;99.90;;;;;;5016440;28;20325;-66
2021/11/22 07:51:16;;;;;;;8.77;6.63;;;7.10;99.90;;;;;;5017681;28;20234;-66
2021/11/22 07:53:43;;;;;;;6.83;5.63;;;7.10;99.90;;;;;;5023807;28;20301;-66
2021/11/22 07:56:10;;;;;;;8.33;6.23;;;7.10;99.90;;;;;;5032910;28;20222;-65
2021/11/22 07:58:37;;;;;;;8.30;5.33;;;7.10;99.90;;;;;;5026426;28;20242;-66
2021/11/22 08:01:04;;;;;;;6.83;4.97;;;7.20;99.90;;;;;;5023191;28;20207;-62
2021/11/22 08:03:33;;;;;;;6.20;4.87;;;7.30;99.90;;;;;;5030639;28;20718;-65
2021/11/22 08:06:00;;;;;;;10.03;5.47;;;7.40;99.90;;;;;;5017133;28;20203;-65
2021/11/22 08:08:31;;;;;;;7.27;5.50;;;7.50;99.90;;;;;;5032291;28;20329;-64
2021/11/22 08:11:06;;;;;;;11.80;5.60;;;7.50;99.90;;;;;;5023383;28;20592;-66
2021/11/22 08:13:34;;;;;;;11.00;5.33;;;7.50;99.90;;;;;;5024719;28;20662;-64
2021/11/22 08:16:04;;;;;;;7.80;5.40;;;7.60;99.90;;;;;;5018562;28;20256;-66
2021/11/22 08:18:34;;;;;;;9.40;5.90;;;7.60;99.90;;;;;;5027485;28;20238;-64
2021/11/22 08:21:02;;;;;;;7.67;5.77;;;7.60;99.90;;;;;;5018388;28;20211;-65
2021/11/22 08:23:30;;;;;;;11.63;6.63;;;7.70;99.90;;;;;;5017586;28;20245;-64
2021/11/22 08:25:57;;;;;;;12.33;8.50;;;7.70;99.90;;;;;;5016368;28;20291;-67
2021/11/22 08:28:25;;;;;;;19.63;13.10;;;7.70;99.90;;;;;;5025723;28;20322;-67
2021/11/22 08:30:52;;;;;;;19.53;14.37;;;7.60;99.90;;;;;;5032135;28;20202;-65
2021/11/22 08:33:19;;;;;;;20.97;15.77;;;7.60;99.90;;;;;;5025644;28;20280;-66
2021/11/22 08:35:49;;;;;;;22.00;16.63;;;7.60;99.90;;;;;;5014331;28;20234;-67
2021/11/22 08:38:17;;;;;;;25.87;17.97;;;7.60;99.90;;;;;;5019079;28;20610;-64
2021/11/22 08:40:45;;;;;;;23.03;15.87;;;7.50;99.90;;;;;;5025778;28;20258;-66
2021/11/22 08:43:15;;;;;;;23.53;15.60;;;7.60;99.90;;;;;;5013629;28;20307;-67
2021/11/22 08:45:44;;;;;;;20.77;15.67;;;7.60;99.90;;;;;;5017336;28;20211;-64
2021/11/22 08:48:11;;;;;;;22.27;16.07;;;7.60;99.90;;;;;;5014943;28;20242;-64
2021/11/22 08:50:39;;;;;;;21.10;15.17;;;7.60;99.90;;;;;;5018392;28;20230;-65
2021/11/22 08:53:07;;;;;;;22.80;16.73;;;7.60;99.90;;;;;;5024958;28;20245;-64
2021/11/22 08:55:34;;;;;;;24.77;16.30;;;7.60;99.90;;;;;;5012325;28;20246;-65
2021/11/22 08:58:01;;;;;;;19.20;14.07;;;7.60;99.90;;;;;;5015047;28;20704;-65
2021/11/22 09:00:31;;;;;;;18.53;13.13;;;7.60;99.90;;;;;;5014219;28;20239;-65
2021/11/22 09:02:58;;;;;;;14.97;11.97;;;7.60;99.90;;;;;;5023744;28;20693;-64
2021/11/22 09:05:27;;;;;;;14.00;10.97;;;7.60;99.90;;;;;;5011433;28;20630;-66
2021/11/22 09:07:54;;;;;;;14.27;10.77;;;7.70;99.90;;;;;;5013641;28;20314;-64
2021/11/22 09:10:24;;;;;;;16.70;10.50;;;7.70;99.90;;;;;;5026655;28;20210;-65
2021/11/22 09:12:51;;;;;;;15.67;11.90;;;7.80;99.90;;;;;;4981178;28;1120382;-65
2021/11/22 09:15:19;;;;;;;17.70;12.57;;;7.80;99.90;;;;;;5016808;28;20280;-64
2021/11/22 09:17:46;;;;;;;18.30;11.90;;;7.80;99.90;;;;;;5021002;28;20242;-65
2021/11/22 09:20:13;;;;;;;13.63;11.37;;;7.90;99.90;;;;;;5026149;28;20289;-65
2021/11/22 09:22:41;;;;;;;15.63;11.77;;;8.00;99.90;;;;;;5024018;28;20235;-65
2021/11/22 09:25:10;;;;;;;14.83;12.10;;;8.00;99.90;;;;;;5024671;28;20230;-64
2021/11/22 09:27:38;;;;;;;14.27;11.57;;;8.00;99.90;;;;;;5011990;28;20657;-64
2021/11/22 09:30:07;;;;;;;15.53;12.40;;;8.00;99.90;;;;;;5011676;28;20719;-64
2021/11/22 09:32:34;;;;;;;14.37;9.63;;;8.00;99.90;;;;;;5017322;28;20288;-65
2021/11/22 09:35:01;;;;;;;9.30;8.07;;;8.10;99.90;;;;;;5021264;28;20294;-64
2021/11/22 09:37:28;;;;;;;10.70;8.10;;;8.00;99.90;;;;;;5016256;28;20194;-64
2021/11/22 09:39:56;;;;;;;9.40;7.03;;;8.00;99.90;;;;;;5018950;28;20207;-65
2021/11/22 09:42:24;;;;;;;11.20;7.80;;;8.00;99.90;;;;;;5016739;28;20265;-64
2021/11/22 09:44:52;;;;;;;10.57;7.73;;;8.00;99.90;;;;;;5024164;28;20250;-66
2021/11/22 09:47:20;;;;;;;11.43;7.90;;;8.00;99.90;;;;;;5024306;28;20223;-67
2021/11/22 09:49:47;;;;;;;9.00;7.50;;;7.90;99.90;;;;;;5015144;28;20329;-65
2021/11/22 09:52:14;;;;;;;7.70;6.63;;;7.80;99.90;;;;;;5019081;28;20686;-64
2021/11/22 09:54:43;;;;;;;10.00;5.77;;;7.80;99.90;;;;;;5015715;28;20302;-65
2021/11/22 09:57:10;;;;;;;10.30;4.93;;;7.80;99.90;;;;;;5019008;28;20408;-65
2021/11/22 09:59:37;;;;;;;5.10;4.50;;;7.80;99.90;;;;;;5019037;28;20692;-64
2021/11/22 10:02:05;;;;;;;6.27;4.70;;;7.80;99.90;;;;;;5014376;28;20213;-65
2021/11/22 10:04:33;;;;;;;7.67;4.80;;;7.80;99.90;;;;;;5016927;28;20291;-64
2021/11/22 10:07:02;;;;;;;8.90;4.40;;;7.80;99.90;;;;;;5016262;28;20290;-65
2021/11/22 10:09:53;;;;;;;8.37;5.10;;;7.80;99.90;;;;;;5022775;28;20234;-64
2021/11/22 10:12:21;;;;;;;13.57;5.00;;;7.90;99.90;;;;;;5021524;28;20301;-65
2021/11/22 10:14:52;;;;;;;5.33;3.73;;;7.80;99.90;;;;;;5016698;28;20202;-65
2021/11/22 10:17:30;;;;;;;4.07;3.37;;;7.80;99.90;;;;;;5012175;28;20666;-65
2021/11/22 10:20:15;;;;;;;4.10;3.33;;;7.80;99.90;;;;;;5018733;28;20217;-65
2021/11/22 10:22:44;;;;;;;7.87;4.13;;;7.70;99.90;;;;;;5020131;28;20626;-66
2021/11/22 10:25:20;;;;;;;6.00;3.57;;;7.60;99.90;;;;;;5017375;28;20207;-66
2021/11/22 10:27:47;;;;;;;3.57;3.27;;;7.70;99.90;;;;;;5023104;28;20226;-66
2021/11/22 10:30:25;;;;;;;6.47;3.80;;;7.70;99.90;;;;;;5027687;28;20215;-66
2021/11/22 10:32:58;;;;;;;6.10;3.80;;;7.70;99.90;;;;;;5019199;28;20304;-66
2021/11/22 10:35:27;;;;;;;7.47;3.80;;;7.60;99.90;;;;;;5018192;28;20676;-66
2021/11/22 10:38:00;;;;;;;7.57;5.47;;;7.70;99.90;;;;;;5021163;28;20206;-65
2021/11/22 10:40:28;;;;;;;6.07;5.37;;;7.80;99.90;;;;;;5021455;28;20266;-66
2021/11/22 10:42:57;;;;;;;6.60;5.27;;;7.90;99.90;;;;;;5018250;28;20711;-65
2021/11/22 10:45:26;;;;;;;5.67;4.40;;;8.00;99.90;;;;;;5017748;28;20218;-66
2021/11/22 10:48:25;;;;;;;8.93;4.70;;;8.00;99.90;;;;;;5024600;28;20777;-66
2021/11/22 10:51:07;;;;;;;6.13;5.10;;;8.00;99.90;;;;;;5016099;28;20214;-67
2021/11/22 10:53:37;;;;;;;8.93;6.63;;;8.20;99.90;;;;;;5024960;28;20305;-67
2021/11/22 10:56:06;;;;;;;8.37;6.40;;;8.30;99.90;;;;;;5025409;28;20280;-66
2021/11/22 10:58:47;;;;;;;9.93;8.27;;;8.40;99.90;;;;;;5023554;28;20366;-65
2021/11/22 11:01:28;;;;;;;11.00;8.73;;;8.40;99.90;;;;;;5019825;28;20640;-64
2021/11/22 11:04:00;;;;;;;10.00;7.20;;;8.40;99.90;;;;;;5020177;28;20237;-65
2021/11/22 11:06:37;;;;;;;9.67;6.50;;;8.30;99.90;;;;;;5022347;28;20239;-65
2021/11/22 11:09:06;;;;;;;8.20;5.60;;;8.30;99.90;;;;;;5013523;28;20262;-65
2021/11/22 11:11:33;;;;;;;6.27;4.83;;;8.10;99.90;;;;;;5021408;28;20709;-65
2021/11/22 11:14:06;;;;;;;5.07;4.10;;;8.10;99.90;;;;;;5018121;28;20243;-65
2021/11/22 11:16:33;;;;;;;5.20;3.97;;;8.10;99.90;;;;;;5022189;28;20256;-65
2021/11/22 11:19:03;;;;;;;4.60;2.70;;;8.00;99.90;;;;;;5017775;28;20196;-65
2021/11/22 11:21:32;;;;;;;4.20;2.67;;;8.00;99.90;;;;;;5016254;28;20242;-63
2021/11/22 11:24:01;;;;;;;5.80;3.40;;;8.00;99.90;;;;;;5020708;28;20676;-64
2021/11/22 11:26:29;;;;;;;7.40;4.40;;;8.00;99.90;;;;;;5030041;28;20214;-64
2021/11/22 11:28:57;;;;;;;5.13;4.43;;;8.00;99.90;;;;;;5021571;28;20247;-64
2021/11/22 11:31:24;;;;;;;9.40;4.80;;;8.00;99.90;;;;;;5025830;28;20242;-64
2021/11/22 11:33:51;;;;;;;6.40;4.50;;;8.10;99.90;;;;;;5022151;28;20242;-64
2021/11/22 11:36:33;;;;;;;7.37;4.50;;;8.10;99.90;;;;;;5019648;28;20199;-66
2021/11/22 11:39:14;;;;;;;6.43;4.77;;;8.10;99.90;;;;;;5023315;28;20609;-65
2021/11/22 11:41:50;;;;;;;5.33;4.13;;;8.20;99.90;;;;;;5020022;28;20294;-63
2021/11/22 11:44:33;;;;;;;5.77;3.90;;;8.20;99.90;;;;;;5021112;28;20269;-66
2021/11/22 11:47:19;;;;;;;6.47;3.93;;;8.30;99.90;;;;;;5018193;28;20290;-64
2021/11/22 11:49:47;;;;;;;7.37;4.03;;;8.30;99.90;;;;;;5013175;28;20277;-64
2021/11/22 11:52:24;;;;;;;5.17;3.97;;;8.20;99.90;;;;;;5022520;28;20289;-64
2021/11/22 11:54:51;;;;;;;6.93;4.10;;;8.20;99.90;;;;;;5029365;28;20312;-65
2021/11/22 11:57:19;;;;;;;6.37;3.70;;;8.20;99.90;;;;;;5019665;28;20304;-65
2021/11/22 11:59:47;;;;;;;5.67;3.63;;;8.20;99.90;;;;;;5017921;28;20621;-65
2021/11/22 12:02:25;;;;;;;4.83;3.93;;;8.10;99.90;;;;;;5019699;28;20218;-65
2021/11/22 12:05:04;;;;;;;4.30;3.90;;;8.20;99.90;;;;;;5013139;28;20211;-66
2021/11/22 12:07:39;;;;;;;5.03;3.50;;;8.10;99.90;;;;;;5022112;28;20286;-64
2021/11/22 12:10:09;;;;;;;6.10;4.00;;;8.10;99.90;;;;;;5015502;28;20678;-66
2021/11/22 12:12:38;;;;;;;4.73;3.57;;;8.20;99.90;;;;;;5019647;28;20263;-65
2021/11/22 12:15:07;;;;;;;4.50;3.67;;;8.20;99.90;;;;;;5016087;28;20310;-64
2021/11/22 12:18:04;;;;;;;3.40;3.10;;;8.20;99.90;;;;;;5012802;28;20688;-64
2021/11/22 12:20:59;;;;;;;4.63;3.37;;;8.20;99.90;;;;;;4971061;28;20232;-65
2021/11/22 12:23:39;;;;;;;6.60;3.73;;;8.20;99.90;;;;;;5011369;28;20572;-64
2021/11/22 12:26:07;;;;;;;7.13;3.93;;;8.20;99.90;;;;;;5016016;28;20207;-63
2021/11/22 12:28:56;;;;;;;4.77;3.80;;;8.20;99.90;;;;;;5017887;28;20318;-66
2021/11/22 12:31:27;;;;;;;5.23;4.07;;;8.30;99.90;;;;;;5016066;28;20303;-65
2021/11/22 12:34:04;;;;;;;6.00;4.80;;;8.30;99.90;;;;;;5016574;28;20226;-64
2021/11/22 12:36:50;;;;;;;10.90;4.70;;;8.30;99.90;;;;;;5019891;28;20286;-65
2021/11/22 12:39:21;;;;;;;4.83;4.20;;;8.40;99.90;;;;;;5014370;28;20203;-63
2021/11/22 12:41:50;;;;;;;6.40;4.97;;;8.50;99.90;;;;;;5014388;28;20211;-64
2021/11/22 12:44:19;;;;;;;6.03;5.00;;;8.50;99.90;;;;;;5015864;28;20273;-64
2021/11/22 12:46:50;;;;;;;6.17;4.57;;;8.50;99.90;;;;;;5012837;28;20236;-66
2021/11/22 12:49:36;;;;;;;6.00;4.70;;;8.60;99.90;;;;;;5012974;28;20309;-64
2021/11/22 12:52:18;;;;;;;5.03;4.53;;;8.60;99.90;;;;;;5016132;28;20258;-64
2021/11/22 12:54:56;;;;;;;4.50;3.83;;;8.70;99.90;;;;;;5026215;28;20280;-64
2021/11/22 12:57:25;;;;;;;5.47;4.87;;;8.80;99.90;;;;;;5019829;28;20878;-64